< Typhoon 195921 1959 Season Typhoon 195923 >
Typhoon 195922 (GILDA)
General InformationTrack Information on Google Maps || Disaster Info.ResourceGoogle EarthGE AnimationAtom FeedGeoJSON
Detalied Best Track (Time Zone = UTC)
Year Month Day Hour Lat. Long. Pressure (hPa) Wind (kt) Class Image Chart
1959 12 11 18 6.2 146.4 1004 0 2 -- Chart
1959 12 12 00 6.5 146.0 1002 0 2 -- Chart
1959 12 12 06 6.8 145.2 1000 0 2 -- Chart
1959 12 12 12 7.1 144.5 995 0 2 -- Chart
1959 12 12 18 7.4 143.8 995 0 2 -- Chart
1959 12 13 00 7.6 143.1 990 0 9 -- Chart
1959 12 13 06 7.6 142.5 990 0 9 -- Chart
1959 12 13 12 7.5 141.9 985 0 9 -- Chart
1959 12 13 18 7.5 141.1 985 0 9 -- Chart
1959 12 14 00 7.5 140.3 980 0 9 -- Chart
1959 12 14 06 7.7 139.3 975 0 9 -- Chart
1959 12 14 12 7.8 138.6 970 0 9 -- Chart
1959 12 14 18 7.9 137.8 955 0 9 -- Chart
1959 12 15 00 8.4 136.6 940 0 9 -- Chart
1959 12 15 06 8.5 135.5 940 0 9 -- Chart
1959 12 15 12 8.6 134.5 940 0 9 -- Chart
1959 12 15 18 8.9 133.4 940 0 9 -- Chart
1959 12 16 00 9.4 132.5 935 0 9 -- Chart
1959 12 16 06 9.9 131.3 930 0 9 -- Chart
1959 12 16 12 10.6 130.2 930 0 9 -- Chart
1959 12 16 18 11.2 129.2 925 0 9 -- Chart
1959 12 17 00 11.4 128.4 930 0 9 -- Chart
1959 12 17 06 11.5 128.0 935 0 9 -- Chart
1959 12 17 12 11.8 127.3 935 0 9 -- Chart
1959 12 17 18 12.2 126.3 935 0 9 -- Chart
1959 12 18 00 12.2 125.6 940 0 9 -- Chart
1959 12 18 06 12.1 124.8 940 0 9 -- Chart
1959 12 18 12 12.1 123.4 950 0 9 -- Chart
1959 12 18 18 12.2 122.3 960 0 9 -- Chart
1959 12 19 00 12.2 121.2 970 0 9 -- Chart
1959 12 19 06 12.3 120.2 970 0 9 -- Chart
1959 12 19 12 12.4 119.0 970 0 9 -- Chart
1959 12 19 18 12.5 118.1 970 0 9 -- Chart
1959 12 20 00 12.6 116.9 975 0 9 -- Chart
1959 12 20 06 12.6 115.6 975 0 9 -- Chart
1959 12 20 12 12.6 114.2 980 0 9 -- Chart
1959 12 20 18 12.5 112.8 985 0 9 -- Chart
1959 12 21 00 12.4 111.5 990 0 9 -- Chart
1959 12 21 06 12.4 110.5 995 0 9 -- Chart
1959 12 21 12 12.3 109.3 1000 0 9 -- Chart
1959 12 21 18 12.7 107.4 1006 0 2 -- Chart
Japan Meteorological Agency Best Track Data | Correction Date : 1989-06-01
< Typhoon 195921 1959 Season Typhoon 195923 >

Help